Kine — C6WT4 — position and weather

sailwx.info

Track history (hours):
 
Tides and Currents Weather Stations Pressure Air Temp Water Temp Dewpoint Dewpoint Depression Visibility Wind Speed Wind Dir Waves Ship Positions

Kine

Last reported at 2018-Apr-22 20:00 UTC. Time now 2018-Apr-22 20:00 UTC.
Position N 55°26' E 015°43'.

Length 89 m; draft 5.1 m.

Type: Cargo ship. MMSI: 311117000.

Date/timePositionNaut miles runAvg speedWind from/ knotsBaromVisibWave heightAir tempDewpointWater temp
2018-Apr-22 20:00N 55°26' E 015°43'4 8.3
2018-Apr-22 19:28N 55°26' E 015°35'4 8.5
2018-Apr-22 19:00N 55°25' E 015°28'4 8.4
2018-Apr-22 18:30N 55°25' E 015°21'4 8.4
2018-Apr-22 18:00N 55°25' E 015°14'4 8.3
2018-Apr-22 17:30N 55°24' E 015°06'4 8.6
2018-Apr-22 17:00N 55°24' E 014°59'4 8.7
2018-Apr-22 16:30N 55°23' E 014°51'4 8.4
2018-Apr-22 15:59N 55°23' E 014°43'4 8.5
2018-Apr-22 15:30N 55°21' E 014°37'5 9.2
2018-Apr-22 15:00N 55°17' E 014°32'5 9.1
2018-Apr-22 14:28N 55°14' E 014°26'5 9.1
2018-Apr-22 13:58N 55°11' E 014°20'31 8.8
2018-Apr-22 10:24N 55°13' E 013°25'4 8.7
2018-Apr-22 09:53N 55°13' E 013°18'5 8.7
2018-Apr-22 09:17N 55°14' E 013°09'2 8.7
2018-Apr-22 09:00N 55°14' E 013°04'4 8.7
2018-Apr-22 08:30N 55°15' E 012°57'5 8.7
2018-Apr-22 07:56N 55°16' E 012°48'4 8.7
2018-Apr-22 07:29N 55°17' E 012°42'3 6.9
2018-Apr-22 07:00N 55°20' E 012°39'4 8.7
2018-Apr-22 06:30N 55°25' E 012°40'4 8.7
2018-Apr-22 06:00N 55°29' E 012°41'5 9.0
2018-Apr-22 05:30N 55°33' E 012°42'5 9.5
2018-Apr-22 05:00N 55°38' E 012°42'5 9.3
2018-Apr-22 04:30N 55°43' E 012°41'5 9.4
2018-Apr-22 04:00N 55°47' E 012°41'5 9.1
2018-Apr-22 03:30N 55°52' E 012°39'5 9.0
2018-Apr-22 03:00N 55°56' E 012°38'4 9.0
2018-Apr-22 02:31N 56°01' E 012°38'4 8.2
2018-Apr-22 02:00N 56°05' E 012°35'5 9.5
2018-Apr-22 01:30N 56°08' E 012°29'69 8.9
2018-Apr-21 17:42N 57°10' E 011°35'2 8.9
2018-Apr-21 17:30N 57°12' E 011°33'4 8.8
2018-Apr-21 17:00N 57°16' E 011°31'5 9.1
2018-Apr-21 16:30N 57°20' E 011°28'4 8.9
2018-Apr-21 16:00N 57°25' E 011°25'4 8.9
2018-Apr-21 15:31N 57°29' E 011°21'4 8.8
2018-Apr-21 15:00N 57°32' E 011°15'4 8.9
2018-Apr-21 14:30N 57°35' E 011°10'5 9.3
2018-Apr-21 13:59N 57°38' E 011°03'5 9.5
2018-Apr-21 13:30N 57°41' E 010°57'5 9.7
2018-Apr-21 13:00N 57°45' E 010°50'5 9.6
2018-Apr-21 12:27N 57°47' E 010°41'4 9.6
2018-Apr-21 12:00N 57°47' E 010°33'5 9.2
2018-Apr-21 11:30N 57°47' E 010°24'5 8.8
2018-Apr-21 10:57N 57°47' E 010°15'60 9.3
2018-Apr-21 04:30N 57°52' E 008°23'5 9.0
2018-Apr-21 04:00N 57°53' E 008°14'5 9.1
2018-Apr-21 03:30N 57°53' E 008°06'5 9.1
2018-Apr-21 03:00N 57°53' E 007°57'5 9.2
2018-Apr-21 02:30N 57°53' E 007°49'4 9.0
2018-Apr-21 02:00N 57°54' E 007°40'5 9.1
2018-Apr-21 01:29N 57°54' E 007°31'4 9.1
2018-Apr-21 01:00N 57°54' E 007°23'5 9.4
2018-Apr-21 00:30N 57°54' E 007°14'5 9.6
2018-Apr-21 00:00N 57°55' E 007°05'510.0
2018-Apr-20 23:30N 57°57' E 006°57'5 9.8
2018-Apr-20 23:00N 57°58' E 006°48'5 9.9
2018-Apr-20 22:30N 57°60' E 006°39'5 9.9
2018-Apr-20 22:00N 58°02' E 006°31'5 9.5
2018-Apr-20 21:30N 58°05' E 006°23'5 9.1
2018-Apr-20 21:00N 58°07' E 006°16'4 8.9
2018-Apr-20 20:31N 58°09' E 006°09'4 8.4
2018-Apr-20 20:00N 58°12' E 006°03'4 8.7
2018-Apr-20 19:30N 58°16' E 005°57'4 8.8
2018-Apr-20 19:00N 58°19' E 005°52'4 8.7
2018-Apr-20 18:30N 58°22' E 005°46'5 9.3
2018-Apr-20 17:58N 58°26' E 005°40'510.0
2018-Apr-20 17:30N 58°29' E 005°35'510.5
2018-Apr-20 17:00N 58°34' E 005°29'510.9
2018-Apr-20 16:30N 58°39' E 005°24'510.7
2018-Apr-20 16:00N 58°43' E 005°19'510.1
2018-Apr-20 15:30N 58°48' E 005°14'5 9.6
2018-Apr-20 15:00N 58°51' E 005°09'5 9.0
2018-Apr-20 14:30N 58°55' E 005°04'4 8.8
2018-Apr-20 14:00N 58°59' E 004°60'5 9.4
2018-Apr-20 13:30N 59°03' E 004°55'39 9.1
2018-Apr-20 09:14N 59°41' E 004°39'2 8.1
2018-Apr-20 09:00N 59°43' E 004°39'4 7.8
2018-Apr-20 08:30N 59°47' E 004°38'4 8.7
2018-Apr-20 08:00N 59°51' E 004°38'4 8.8
2018-Apr-20 07:30N 59°55' E 004°37'5 8.9
2018-Apr-20 07:00N 59°60' E 004°36'4 9.0
2018-Apr-20 06:30N 60°04' E 004°36'4 8.8
2018-Apr-20 06:00N 60°09' E 004°35'5 8.7
2018-Apr-20 05:29N 60°13' E 004°34'4 8.4
2018-Apr-20 05:00N 60°17' E 004°34'4 8.0
2018-Apr-20 04:30N 60°21' E 004°34'4 8.0
2018-Apr-20 04:00N 60°25' E 004°34'4 7.9
2018-Apr-20 03:30N 60°29' E 004°34'4 7.9
2018-Apr-20 03:00N 60°33' E 004°33'4 7.9
2018-Apr-20 02:30N 60°37' E 004°33'4 7.4
2018-Apr-20 01:59N 60°41' E 004°34'4 7.3
2018-Apr-20 01:29N 60°44' E 004°38'4 8.5
2018-Apr-20 01:00N 60°46' E 004°46'4 8.1
2018-Apr-20 00:30N 60°50' E 004°44'4 8.3
2018-Apr-20 00:00N 60°54' E 004°46'4 8.5
2018-Apr-19 23:30N 60°58' E 004°45'4 7.6
2018-Apr-19 23:00N 61°01' E 004°51'4 8.2
2018-Apr-19 22:29N 61°03' E 004°58'4 8.1
2018-Apr-19 21:59N 61°05' E 005°05'4 7.9
2018-Apr-19 21:30N 61°05' E 005°13'5 9.1
2018-Apr-19 21:00N 61°04' E 005°22'5 9.2
2018-Apr-19 20:30N 61°05' E 005°31'4 9.0
2018-Apr-19 20:00N 61°07' E 005°40'5 8.9
2018-Apr-19 19:30N 61°08' E 005°49'5 9.5
2018-Apr-19 18:59N 61°08' E 005°59'5 9.9
2018-Apr-19 18:30N 61°07' E 006°09'5 9.6
2018-Apr-19 18:00N 61°07' E 006°19'5 9.7
2018-Apr-19 17:29N 61°07' E 006°29'5 9.5
2018-Apr-19 17:00N 61°10' E 006°36'4 8.4
2018-Apr-19 16:29N 61°10' E 006°45'4 8.9
2018-Apr-19 15:59N 61°08' E 006°53'5 9.5
2018-Apr-19 15:30N 61°05' E 006°60'4 8.8
2018-Apr-19 15:00N 61°00' E 007°02'4 8.7
2018-Apr-19 14:30N 60°57' E 006°57'4 7.5
2018-Apr-19 14:00N 60°54' E 006°52'1 0.2
2018-Apr-19 05:32N 60°53' E 006°50'0 0.2
2018-Apr-19 05:30N 60°53' E 006°51'2 4.6
2018-Apr-19 04:59N 60°55' E 006°52'4 8.0
2018-Apr-19 04:29N 60°58' E 006°58'4 8.6
2018-Apr-19 03:59N 61°02' E 007°02'5 9.7
2018-Apr-19 03:30N 61°06' E 006°57'5 9.6
2018-Apr-19 03:00N 61°09' E 006°50'5 9.8
2018-Apr-19 02:30N 61°11' E 006°40'4 8.5
2018-Apr-19 01:59N 61°08' E 006°33'4 8.9
2018-Apr-19 01:30N 61°06' E 006°24'5 9.3
2018-Apr-19 01:00N 61°07' E 006°15'5 9.7
2018-Apr-19 00:29N 61°08' E 006°05'5 9.5
2018-Apr-19 00:00N 61°08' E 005°55'5 9.6
2018-Apr-18 23:30N 61°08' E 005°45'5 9.7
2018-Apr-18 23:00N 61°06' E 005°36'5 9.5
2018-Apr-18 22:30N 61°04' E 005°26'5 9.6
2018-Apr-18 22:00N 61°05' E 005°17'510.1
2018-Apr-18 21:29N 61°08' E 005°08'5 9.3
2018-Apr-18 21:00N 61°11' E 005°01'5 9.4
2018-Apr-18 20:30N 61°15' E 004°55'4 7.9
2018-Apr-18 20:00N 61°18' E 004°60'4 7.4
2018-Apr-18 19:30N 61°21' E 005°02'5 8.8
2018-Apr-18 18:58N 61°26' E 004°58'4 9.4
2018-Apr-18 18:30N 61°30' E 004°59'4 8.7
2018-Apr-18 18:00N 61°34' E 004°57'4 8.3
2018-Apr-18 17:30N 61°38' E 004°54'5 9.4
2018-Apr-18 17:00N 61°42' E 004°47'4 8.8
2018-Apr-18 16:30N 61°42' E 004°38'4 8.7
2018-Apr-18 16:00N 61°41' E 004°29'5 9.4
2018-Apr-18 15:30N 61°36' E 004°26'0 1.0
2018-Apr-18 15:00N 61°37' E 004°27'3 6.7
2018-Apr-18 14:30N 61°40' E 004°29'3 6.9
2018-Apr-18 14:00N 61°43' E 004°31'3 6.7
2018-Apr-18 13:29N 61°47' E 004°33'3 6.5
2018-Apr-18 13:00N 61°49' E 004°36'3 6.5
2018-Apr-18 12:29N 61°52' E 004°39'3 6.6
2018-Apr-18 12:00N 61°55' E 004°42'3 6.6
2018-Apr-18 11:29N 61°59' E 004°44'3 6.7
2018-Apr-18 10:59N 62°02' E 004°47'3 6.6
2018-Apr-18 10:30N 62°05' E 004°50'3 6.7
2018-Apr-18 10:00N 62°08' E 004°53'3 6.7
2018-Apr-18 09:30N 62°10' E 004°57'3 7.0
2018-Apr-18 09:00N 62°13' E 005°01'4 7.1
2018-Apr-18 08:30N 62°16' E 005°05'4 7.4
2018-Apr-18 08:00N 62°19' E 005°10'4 7.7
2018-Apr-18 07:30N 62°22' E 005°15'4 7.6
2018-Apr-18 06:59N 62°25' E 005°21'4 7.7
2018-Apr-18 06:30N 62°28' E 005°26'4 7.4
2018-Apr-18 06:00N 62°31' E 005°31'4 7.3
2018-Apr-18 05:30N 62°34' E 005°36'4 7.4
2018-Apr-18 05:00N 62°36' E 005°42'4 7.7
2018-Apr-18 04:30N 62°39' E 005°47'4 7.6
2018-Apr-18 04:00N 62°42' E 005°53'4 7.6
2018-Apr-18 03:29N 62°45' E 005°59'4 7.6
2018-Apr-18 02:59N 62°48' E 006°04'4 7.7
2018-Apr-18 02:29N 62°50' E 006°10'4 7.7
2018-Apr-18 02:00N 62°53' E 006°16'4 8.4
2018-Apr-18 01:30N 62°56' E 006°23'4 8.8
2018-Apr-18 01:00N 62°58' E 006°31'5 9.2
2018-Apr-18 00:30N 63°01' E 006°39'5 9.0
2018-Apr-17 23:59N 63°04' E 006°48'4 9.0
2018-Apr-17 23:30N 63°06' E 006°56'4 9.1
2018-Apr-17 23:00N 63°09' E 007°03'5 9.0
2018-Apr-17 22:30N 63°11' E 007°12'5 9.2
2018-Apr-17 22:00N 63°13' E 007°21'4 8.9
2018-Apr-17 21:30N 63°14' E 007°31'4 8.3
2018-Apr-17 21:00N 63°15' E 007°40'4 7.6
2018-Apr-17 20:30N 63°12' E 007°45'5 9.5
2018-Apr-17 20:00N 63°07' E 007°41'5 9.8
2018-Apr-17 19:30N 63°02' E 007°41'5 9.9
2018-Apr-17 19:00N 62°58' E 007°47'5 9.5
2018-Apr-17 18:29N 62°59' E 007°58'5 9.3
2018-Apr-17 18:00N 62°56' E 008°06'5 9.5
2018-Apr-17 17:30N 62°52' E 008°08'1 2.0
2018-Apr-17 17:00N 62°51' E 008°08'0 0.0
2018-Apr-17 16:30N 62°51' E 008°08'0 0.0
2018-Apr-17 16:00N 62°51' E 008°08'0 0.0
2018-Apr-17 15:30N 62°51' E 008°08'0 0.0
2018-Apr-17 15:00N 62°51' E 008°08'0 0.0
2018-Apr-17 14:27N 62°51' E 008°08'0 0.0
2018-Apr-17 14:00N 62°51' E 008°08'0 0.0
2018-Apr-17 13:30N 62°51' E 008°08'0 0.0
2018-Apr-17 13:00N 62°51' E 008°08'0 0.0
2018-Apr-17 12:30N 62°51' E 008°08'0 0.0
2018-Apr-17 12:00N 62°51' E 008°08'0 0.0
2018-Apr-17 11:30N 62°51' E 008°08'0 0.0
2018-Apr-17 11:00N 62°51' E 008°08'0 0.0
2018-Apr-17 10:30N 62°51' E 008°08'0 0.0
2018-Apr-17 10:00N 62°51' E 008°08'0 0.0
2018-Apr-17 09:30N 62°51' E 008°08'0 0.0
2018-Apr-17 09:00N 62°51' E 008°08'0 0.0
2018-Apr-17 08:30N 62°51' E 008°08'0 0.0
2018-Apr-17 08:00N 62°51' E 008°08'0 0.0
2018-Apr-17 07:30N 62°51' E 008°08'0 0.0
2018-Apr-17 07:00N 62°51' E 008°08'0 0.0
2018-Apr-17 06:30N 62°51' E 008°08'0 0.0
2018-Apr-17 06:00N 62°51' E 008°08'0 0.0
2018-Apr-17 05:30N 62°51' E 008°08'0 0.0
2018-Apr-17 05:00N 62°51' E 008°08'0 0.0
2018-Apr-17 04:30N 62°51' E 008°08'0 0.0
2018-Apr-17 04:00N 62°51' E 008°08'0 0.0
2018-Apr-17 03:30N 62°51' E 008°08'0 0.0
2018-Apr-17 03:00N 62°51' E 008°08'0 0.0
2018-Apr-17 02:30N 62°51' E 008°08'0 0.0
2018-Apr-17 02:00N 62°51' E 008°08'0 0.0
2018-Apr-17 01:30N 62°51' E 008°08'0 0.0
2018-Apr-17 01:00N 62°51' E 008°08'0 0.0
2018-Apr-17 00:30N 62°51' E 008°08'0 0.0
2018-Apr-17 00:00N 62°51' E 008°08'0 0.0
2018-Apr-16 23:30N 62°51' E 008°08'0 0.0
2018-Apr-16 23:00N 62°51' E 008°08'0 0.0
2018-Apr-16 22:30N 62°51' E 008°08'0 0.0
2018-Apr-16 22:00N 62°51' E 008°08'0 0.0
2018-Apr-16 21:30N 62°51' E 008°08'0 0.0
2018-Apr-16 21:00N 62°51' E 008°08'0 0.0
2018-Apr-16 20:30N 62°51' E 008°08'0 0.0
2018-Apr-16 20:00N 62°51' E 008°08'0 0.1
2018-Apr-16 19:30N 62°51' E 008°08'4 7.8
2018-Apr-16 19:00N 62°54' E 008°07'4 9.1
2018-Apr-16 18:30N 62°58' E 008°02'5 9.2
2018-Apr-16 18:00N 62°58' E 007°52'4 7.8
2018-Apr-16 17:30N 63°00' E 007°45'4 8.7
2018-Apr-16 17:00N 63°04' E 007°41'4 7.6
2018-Apr-16 16:31N 63°07' E 007°37'5 9.4
2018-Apr-16 16:00N 63°05' E 007°28'5 9.0
2018-Apr-16 15:30N 63°03' E 007°19'4 9.0
2018-Apr-16 15:00N 63°03' E 007°09'5 9.5
2018-Apr-16 14:30N 63°04' E 006°58'5 9.1
2018-Apr-16 14:00N 63°01' E 006°49'4 9.2
2018-Apr-16 13:30N 62°59' E 006°41'5 9.3
2018-Apr-16 13:00N 62°57' E 006°32'5 9.4
2018-Apr-16 12:30N 62°54' E 006°23'5 9.6
2018-Apr-16 12:00N 62°52' E 006°14'5 9.8
2018-Apr-16 11:30N 62°49' E 006°06'5 9.6
2018-Apr-16 11:00N 62°45' E 005°59'5 9.8
2018-Apr-16 10:30N 62°41' E 005°52'5 9.7
2018-Apr-16 10:00N 62°38' E 005°45'5 9.5
2018-Apr-16 09:30N 62°34' E 005°38'5 9.6
2018-Apr-16 08:59N 62°30' E 005°31'5 9.9
2018-Apr-16 08:30N 62°27' E 005°24'5 9.9
2018-Apr-16 08:00N 62°23' E 005°17'5 9.6
2018-Apr-16 07:30N 62°19' E 005°11'5 9.8
2018-Apr-16 07:00N 62°15' E 005°05'510.0
2018-Apr-16 06:30N 62°11' E 004°59'510.0
2018-Apr-16 06:00N 62°07' E 004°53'510.0
2018-Apr-16 05:30N 62°03' E 004°48'510.0
2018-Apr-16 05:00N 61°58' E 004°44'5 9.8
2018-Apr-16 04:29N 61°53' E 004°39'5 9.4
2018-Apr-16 04:00N 61°49' E 004°35'5 9.3
2018-Apr-16 03:30N 61°45' E 004°32'5 9.5
2018-Apr-16 03:00N 61°40' E 004°28'5 9.8
2018-Apr-16 02:30N 61°36' E 004°26'5 9.8
2018-Apr-16 01:59N 61°31' E 004°26'5 9.4
2018-Apr-16 01:30N 61°26' E 004°26'5 9.3
2018-Apr-16 01:00N 61°22' E 004°26'5 9.4
2018-Apr-16 00:30N 61°17' E 004°26'5 9.3
2018-Apr-15 23:59N 61°12' E 004°25'4 9.1
2018-Apr-15 23:30N 61°08' E 004°25'5 9.4
2018-Apr-15 23:00N 61°03' E 004°26'510.2
2018-Apr-15 22:30N 60°58' E 004°26'5 9.7
2018-Apr-15 22:00N 60°53' E 004°28'5 9.2
2018-Apr-15 21:28N 60°48' E 004°28'4 8.9
2018-Apr-15 21:00N 60°44' E 004°28'5 9.2
2018-Apr-15 20:30N 60°39' E 004°29'5 9.3
2018-Apr-15 20:00N 60°35' E 004°29'5 9.7
2018-Apr-15 19:30N 60°30' E 004°30'5 9.9
2018-Apr-15 19:00N 60°25' E 004°30'510.0
2018-Apr-15 18:30N 60°20' E 004°30'510.2
2018-Apr-15 17:59N 60°15' E 004°31'510.4
2018-Apr-15 17:30N 60°10' E 004°31'610.5
2018-Apr-15 16:58N 60°04' E 004°32'57 9.3
2018-Apr-15 10:53N 59°08' E 004°38'4 9.2
2018-Apr-15 10:25N 59°03' E 004°38'4 8.9
2018-Apr-15 09:59N 58°60' E 004°38'6 8.9
2018-Apr-15 09:20N 58°54' E 004°38'3 9.2
2018-Apr-15 08:59N 58°50' E 004°39'11 9.1
2018-Apr-15 07:45N 58°39' E 004°40'2 9.6
2018-Apr-15 07:30N 58°37' E 004°40'5 9.7
2018-Apr-15 06:59N 58°32' E 004°40'510.0
2018-Apr-15 06:30N 58°27' E 004°40'361 8.7
2018-Apr-13 13:03N 52°27' E 003°54'210.5
2018-Apr-13 12:54N 52°25' E 003°54'410.6
2018-Apr-13 12:30N 52°21' E 003°53'510.2
2018-Apr-13 12:00N 52°16' E 003°53'510.0
2018-Apr-13 11:30N 52°11' E 003°54'5 9.6
2018-Apr-13 11:00N 52°06' E 003°54'4 8.7
2018-Apr-13 10:30N 52°02' E 003°55'5 9.1
2018-Apr-13 10:00N 51°60' E 004°01'510.6
2018-Apr-13 09:30N 51°58' E 004°09'510.9
2018-Apr-13 09:00N 51°54' E 004°16'5 8.9
2018-Apr-13 08:30N 51°51' E 004°21'5 9.7
2018-Apr-13 08:00N 51°50' E 004°29'5 9.6
2018-Apr-13 07:30N 51°48' E 004°36'5 9.9
2018-Apr-13 07:00N 51°43' E 004°38'2 4.8
2018-Apr-13 06:31N 51°41' E 004°36'0 0.4
2018-Apr-13 06:00N 51°41' E 004°36'0 0.0
2018-Apr-13 05:24N 51°41' E 004°36'0 0.0
2018-Apr-13 04:48N 51°41' E 004°36'0 0.0
2018-Apr-13 04:27N 51°41' E 004°36'0 0.0
2018-Apr-13 03:57N 51°41' E 004°36'0 0.0
2018-Apr-13 03:30N 51°41' E 004°36'0 0.0
2018-Apr-13 02:51N 51°41' E 004°36'0 0.0
2018-Apr-13 02:27N 51°41' E 004°36'0 0.0
2018-Apr-13 01:54N 51°41' E 004°36'0 0.0
2018-Apr-13 01:30N 51°41' E 004°36'0 0.0
2018-Apr-13 01:00N 51°41' E 004°36'0 0.0
2018-Apr-13 00:15N 51°41' E 004°36'0 0.0
2018-Apr-13 00:00N 51°41' E 004°36'0 0.0
2018-Apr-12 23:30N 51°41' E 004°36'0 0.0
2018-Apr-12 23:00N 51°41' E 004°36'0 0.0
2018-Apr-12 22:24N 51°41' E 004°36'0 0.0
2018-Apr-12 21:54N 51°41' E 004°36'0 0.0
2018-Apr-12 21:27N 51°41' E 004°36'0 0.0
2018-Apr-12 20:57N 51°41' E 004°36'0 0.0
2018-Apr-12 20:30N 51°41' E 004°36'  
Track history (hours):
 
Tides and Currents Weather Stations Pressure Air Temp Water Temp Dewpoint Dewpoint Depression Visibility Wind Speed Wind Dir Waves Ship Positions

Kine

Last reported at 2018-Apr-22 20:00 UTC. Time now 2018-Apr-22 20:00 UTC.
Position N 55°26' E 015°43'.

Length 89 m; draft 5.1 m.

Type: Cargo ship. MMSI: 311117000.

Date/timePositionNaut miles runAvg speedWind from/ knotsBaromVisibWave heightAir tempDewpointWater temp
2018-Apr-22 20:00N 55°26' E 015°43'4 8.3
2018-Apr-22 19:28N 55°26' E 015°35'4 8.5
2018-Apr-22 19:00N 55°25' E 015°28'4 8.4
2018-Apr-22 18:30N 55°25' E 015°21'4 8.4
2018-Apr-22 18:00N 55°25' E 015°14'4 8.3
2018-Apr-22 17:30N 55°24' E 015°06'4 8.6
2018-Apr-22 17:00N 55°24' E 014°59'4 8.7
2018-Apr-22 16:30N 55°23' E 014°51'4 8.4
2018-Apr-22 15:59N 55°23' E 014°43'4 8.5
2018-Apr-22 15:30N 55°21' E 014°37'5 9.2
2018-Apr-22 15:00N 55°17' E 014°32'5 9.1
2018-Apr-22 14:28N 55°14' E 014°26'5 9.1
2018-Apr-22 13:58N 55°11' E 014°20'31 8.8
2018-Apr-22 10:24N 55°13' E 013°25'4 8.7
2018-Apr-22 09:53N 55°13' E 013°18'5 8.7
2018-Apr-22 09:17N 55°14' E 013°09'2 8.7
2018-Apr-22 09:00N 55°14' E 013°04'4 8.7
2018-Apr-22 08:30N 55°15' E 012°57'5 8.7
2018-Apr-22 07:56N 55°16' E 012°48'4 8.7
2018-Apr-22 07:29N 55°17' E 012°42'3 6.9
2018-Apr-22 07:00N 55°20' E 012°39'4 8.7
2018-Apr-22 06:30N 55°25' E 012°40'4 8.7
2018-Apr-22 06:00N 55°29' E 012°41'5 9.0
2018-Apr-22 05:30N 55°33' E 012°42'5 9.5
2018-Apr-22 05:00N 55°38' E 012°42'5 9.3
2018-Apr-22 04:30N 55°43' E 012°41'5 9.4
2018-Apr-22 04:00N 55°47' E 012°41'5 9.1
2018-Apr-22 03:30N 55°52' E 012°39'5 9.0
2018-Apr-22 03:00N 55°56' E 012°38'4 9.0
2018-Apr-22 02:31N 56°01' E 012°38'4 8.2
2018-Apr-22 02:00N 56°05' E 012°35'5 9.5
2018-Apr-22 01:30N 56°08' E 012°29'69 8.9
2018-Apr-21 17:42N 57°10' E 011°35'2 8.9
2018-Apr-21 17:30N 57°12' E 011°33'4 8.8
2018-Apr-21 17:00N 57°16' E 011°31'5 9.1
2018-Apr-21 16:30N 57°20' E 011°28'4 8.9
2018-Apr-21 16:00N 57°25' E 011°25'4 8.9
2018-Apr-21 15:31N 57°29' E 011°21'4 8.8
2018-Apr-21 15:00N 57°32' E 011°15'4 8.9
2018-Apr-21 14:30N 57°35' E 011°10'5 9.3
2018-Apr-21 13:59N 57°38' E 011°03'5 9.5
2018-Apr-21 13:30N 57°41' E 010°57'5 9.7
2018-Apr-21 13:00N 57°45' E 010°50'5 9.6
2018-Apr-21 12:27N 57°47' E 010°41'4 9.6
2018-Apr-21 12:00N 57°47' E 010°33'5 9.2
2018-Apr-21 11:30N 57°47' E 010°24'5 8.8
2018-Apr-21 10:57N 57°47' E 010°15'60 9.3
2018-Apr-21 04:30N 57°52' E 008°23'5 9.0
2018-Apr-21 04:00N 57°53' E 008°14'5 9.1
2018-Apr-21 03:30N 57°53' E 008°06'5 9.1
2018-Apr-21 03:00N 57°53' E 007°57'5 9.2
2018-Apr-21 02:30N 57°53' E 007°49'4 9.0
2018-Apr-21 02:00N 57°54' E 007°40'5 9.1
2018-Apr-21 01:29N 57°54' E 007°31'4 9.1
2018-Apr-21 01:00N 57°54' E 007°23'5 9.4
2018-Apr-21 00:30N 57°54' E 007°14'5 9.6
2018-Apr-21 00:00N 57°55' E 007°05'510.0
2018-Apr-20 23:30N 57°57' E 006°57'5 9.8
2018-Apr-20 23:00N 57°58' E 006°48'5 9.9
2018-Apr-20 22:30N 57°60' E 006°39'5 9.9
2018-Apr-20 22:00N 58°02' E 006°31'5 9.5
2018-Apr-20 21:30N 58°05' E 006°23'5 9.1
2018-Apr-20 21:00N 58°07' E 006°16'4 8.9
2018-Apr-20 20:31N 58°09' E 006°09'4 8.4
2018-Apr-20 20:00N 58°12' E 006°03'4 8.7
2018-Apr-20 19:30N 58°16' E 005°57'4 8.8
2018-Apr-20 19:00N 58°19' E 005°52'4 8.7
2018-Apr-20 18:30N 58°22' E 005°46'5 9.3
2018-Apr-20 17:58N 58°26' E 005°40'510.0
2018-Apr-20 17:30N 58°29' E 005°35'510.5
2018-Apr-20 17:00N 58°34' E 005°29'510.9
2018-Apr-20 16:30N 58°39' E 005°24'510.7
2018-Apr-20 16:00N 58°43' E 005°19'510.1
2018-Apr-20 15:30N 58°48' E 005°14'5 9.6
2018-Apr-20 15:00N 58°51' E 005°09'5 9.0
2018-Apr-20 14:30N 58°55' E 005°04'4 8.8
2018-Apr-20 14:00N 58°59' E 004°60'5 9.4
2018-Apr-20 13:30N 59°03' E 004°55'39 9.1
2018-Apr-20 09:14N 59°41' E 004°39'2 8.1
2018-Apr-20 09:00N 59°43' E 004°39'4 7.8
2018-Apr-20 08:30N 59°47' E 004°38'4 8.7
2018-Apr-20 08:00N 59°51' E 004°38'4 8.8
2018-Apr-20 07:30N 59°55' E 004°37'5 8.9
2018-Apr-20 07:00N 59°60' E 004°36'4 9.0
2018-Apr-20 06:30N 60°04' E 004°36'4 8.8
2018-Apr-20 06:00N 60°09' E 004°35'5 8.7
2018-Apr-20 05:29N 60°13' E 004°34'4 8.4
2018-Apr-20 05:00N 60°17' E 004°34'4 8.0
2018-Apr-20 04:30N 60°21' E 004°34'4 8.0
2018-Apr-20 04:00N 60°25' E 004°34'4 7.9
2018-Apr-20 03:30N 60°29' E 004°34'4 7.9
2018-Apr-20 03:00N 60°33' E 004°33'4 7.9
2018-Apr-20 02:30N 60°37' E 004°33'4 7.4
2018-Apr-20 01:59N 60°41' E 004°34'4 7.3
2018-Apr-20 01:29N 60°44' E 004°38'4 8.5
2018-Apr-20 01:00N 60°46' E 004°46'4 8.1
2018-Apr-20 00:30N 60°50' E 004°44'4 8.3
2018-Apr-20 00:00N 60°54' E 004°46'4 8.5
2018-Apr-19 23:30N 60°58' E 004°45'4 7.6
2018-Apr-19 23:00N 61°01' E 004°51'4 8.2
2018-Apr-19 22:29N 61°03' E 004°58'4 8.1
2018-Apr-19 21:59N 61°05' E 005°05'4 7.9
2018-Apr-19 21:30N 61°05' E 005°13'5 9.1
2018-Apr-19 21:00N 61°04' E 005°22'5 9.2
2018-Apr-19 20:30N 61°05' E 005°31'4 9.0
2018-Apr-19 20:00N 61°07' E 005°40'5 8.9
2018-Apr-19 19:30N 61°08' E 005°49'5 9.5
2018-Apr-19 18:59N 61°08' E 005°59'5 9.9
2018-Apr-19 18:30N 61°07' E 006°09'5 9.6
2018-Apr-19 18:00N 61°07' E 006°19'5 9.7
2018-Apr-19 17:29N 61°07' E 006°29'5 9.5
2018-Apr-19 17:00N 61°10' E 006°36'4 8.4
2018-Apr-19 16:29N 61°10' E 006°45'4 8.9
2018-Apr-19 15:59N 61°08' E 006°53'5 9.5
2018-Apr-19 15:30N 61°05' E 006°60'4 8.8
2018-Apr-19 15:00N 61°00' E 007°02'4 8.7
2018-Apr-19 14:30N 60°57' E 006°57'4 7.5
2018-Apr-19 14:00N 60°54' E 006°52'1 0.2
2018-Apr-19 05:32N 60°53' E 006°50'0 0.2
2018-Apr-19 05:30N 60°53' E 006°51'2 4.6
2018-Apr-19 04:59N 60°55' E 006°52'4 8.0
2018-Apr-19 04:29N 60°58' E 006°58'4 8.6
2018-Apr-19 03:59N 61°02' E 007°02'5 9.7
2018-Apr-19 03:30N 61°06' E 006°57'5 9.6
2018-Apr-19 03:00N 61°09' E 006°50'5 9.8
2018-Apr-19 02:30N 61°11' E 006°40'4 8.5
2018-Apr-19 01:59N 61°08' E 006°33'4 8.9
2018-Apr-19 01:30N 61°06' E 006°24'5 9.3
2018-Apr-19 01:00N 61°07' E 006°15'5 9.7
2018-Apr-19 00:29N 61°08' E 006°05'5 9.5
2018-Apr-19 00:00N 61°08' E 005°55'5 9.6
2018-Apr-18 23:30N 61°08' E 005°45'5 9.7
2018-Apr-18 23:00N 61°06' E 005°36'5 9.5
2018-Apr-18 22:30N 61°04' E 005°26'5 9.6
2018-Apr-18 22:00N 61°05' E 005°17'510.1
2018-Apr-18 21:29N 61°08' E 005°08'5 9.3
2018-Apr-18 21:00N 61°11' E 005°01'5 9.4
2018-Apr-18 20:30N 61°15' E 004°55'4 7.9
2018-Apr-18 20:00N 61°18' E 004°60'4 7.4
2018-Apr-18 19:30N 61°21' E 005°02'5 8.8
2018-Apr-18 18:58N 61°26' E 004°58'4 9.4
2018-Apr-18 18:30N 61°30' E 004°59'4 8.7
2018-Apr-18 18:00N 61°34' E 004°57'4 8.3
2018-Apr-18 17:30N 61°38' E 004°54'5 9.4
2018-Apr-18 17:00N 61°42' E 004°47'4 8.8
2018-Apr-18 16:30N 61°42' E 004°38'4 8.7
2018-Apr-18 16:00N 61°41' E 004°29'5 9.4
2018-Apr-18 15:30N 61°36' E 004°26'0 1.0
2018-Apr-18 15:00N 61°37' E 004°27'3 6.7
2018-Apr-18 14:30N 61°40' E 004°29'3 6.9
2018-Apr-18 14:00N 61°43' E 004°31'3 6.7
2018-Apr-18 13:29N 61°47' E 004°33'3 6.5
2018-Apr-18 13:00N 61°49' E 004°36'3 6.5
2018-Apr-18 12:29N 61°52' E 004°39'3 6.6
2018-Apr-18 12:00N 61°55' E 004°42'3 6.6
2018-Apr-18 11:29N 61°59' E 004°44'3 6.7
2018-Apr-18 10:59N 62°02' E 004°47'3 6.6
2018-Apr-18 10:30N 62°05' E 004°50'3 6.7
2018-Apr-18 10:00N 62°08' E 004°53'3 6.7
2018-Apr-18 09:30N 62°10' E 004°57'3 7.0
2018-Apr-18 09:00N 62°13' E 005°01'4 7.1
2018-Apr-18 08:30N 62°16' E 005°05'4 7.4
2018-Apr-18 08:00N 62°19' E 005°10'4 7.7
2018-Apr-18 07:30N 62°22' E 005°15'4 7.6
2018-Apr-18 06:59N 62°25' E 005°21'4 7.7
2018-Apr-18 06:30N 62°28' E 005°26'4 7.4
2018-Apr-18 06:00N 62°31' E 005°31'4 7.3
2018-Apr-18 05:30N 62°34' E 005°36'4 7.4
2018-Apr-18 05:00N 62°36' E 005°42'4 7.7
2018-Apr-18 04:30N 62°39' E 005°47'4 7.6
2018-Apr-18 04:00N 62°42' E 005°53'4 7.6
2018-Apr-18 03:29N 62°45' E 005°59'4 7.6
2018-Apr-18 02:59N 62°48' E 006°04'4 7.7
2018-Apr-18 02:29N 62°50' E 006°10'4 7.7
2018-Apr-18 02:00N 62°53' E 006°16'4 8.4
2018-Apr-18 01:30N 62°56' E 006°23'4 8.8
2018-Apr-18 01:00N 62°58' E 006°31'5 9.2
2018-Apr-18 00:30N 63°01' E 006°39'5 9.0
2018-Apr-17 23:59N 63°04' E 006°48'4 9.0
2018-Apr-17 23:30N 63°06' E 006°56'4 9.1
2018-Apr-17 23:00N 63°09' E 007°03'5 9.0
2018-Apr-17 22:30N 63°11' E 007°12'5 9.2
2018-Apr-17 22:00N 63°13' E 007°21'4 8.9
2018-Apr-17 21:30N 63°14' E 007°31'4 8.3
2018-Apr-17 21:00N 63°15' E 007°40'4 7.6
2018-Apr-17 20:30N 63°12' E 007°45'5 9.5
2018-Apr-17 20:00N 63°07' E 007°41'5 9.8
2018-Apr-17 19:30N 63°02' E 007°41'5 9.9
2018-Apr-17 19:00N 62°58' E 007°47'5 9.5
2018-Apr-17 18:29N 62°59' E 007°58'5 9.3
2018-Apr-17 18:00N 62°56' E 008°06'5 9.5
2018-Apr-17 17:30N 62°52' E 008°08'1 2.0
2018-Apr-17 17:00N 62°51' E 008°08'0 0.0
2018-Apr-17 16:30N 62°51' E 008°08'0 0.0
2018-Apr-17 16:00N 62°51' E 008°08'0 0.0
2018-Apr-17 15:30N 62°51' E 008°08'0 0.0
2018-Apr-17 15:00N 62°51' E 008°08'0 0.0
2018-Apr-17 14:27N 62°51' E 008°08'0 0.0
2018-Apr-17 14:00N 62°51' E 008°08'0 0.0
2018-Apr-17 13:30N 62°51' E 008°08'0 0.0
2018-Apr-17 13:00N 62°51' E 008°08'0 0.0
2018-Apr-17 12:30N 62°51' E 008°08'0 0.0
2018-Apr-17 12:00N 62°51' E 008°08'0 0.0
2018-Apr-17 11:30N 62°51' E 008°08'0 0.0
2018-Apr-17 11:00N 62°51' E 008°08'0 0.0
2018-Apr-17 10:30N 62°51' E 008°08'0 0.0
2018-Apr-17 10:00N 62°51' E 008°08'0 0.0
2018-Apr-17 09:30N 62°51' E 008°08'0 0.0
2018-Apr-17 09:00N 62°51' E 008°08'0 0.0
2018-Apr-17 08:30N 62°51' E 008°08'0 0.0
2018-Apr-17 08:00N 62°51' E 008°08'0 0.0
2018-Apr-17 07:30N 62°51' E 008°08'0 0.0
2018-Apr-17 07:00N 62°51' E 008°08'0 0.0
2018-Apr-17 06:30N 62°51' E 008°08'0 0.0
2018-Apr-17 06:00N 62°51' E 008°08'0 0.0
2018-Apr-17 05:30N 62°51' E 008°08'0 0.0
2018-Apr-17 05:00N 62°51' E 008°08'0 0.0
2018-Apr-17 04:30N 62°51' E 008°08'0 0.0
2018-Apr-17 04:00N 62°51' E 008°08'0 0.0
2018-Apr-17 03:30N 62°51' E 008°08'0 0.0
2018-Apr-17 03:00N 62°51' E 008°08'0 0.0
2018-Apr-17 02:30N 62°51' E 008°08'0 0.0
2018-Apr-17 02:00N 62°51' E 008°08'0 0.0
2018-Apr-17 01:30N 62°51' E 008°08'0 0.0
2018-Apr-17 01:00N 62°51' E 008°08'0 0.0
2018-Apr-17 00:30N 62°51' E 008°08'0 0.0
2018-Apr-17 00:00N 62°51' E 008°08'0 0.0
2018-Apr-16 23:30N 62°51' E 008°08'0 0.0
2018-Apr-16 23:00N 62°51' E 008°08'0 0.0
2018-Apr-16 22:30N 62°51' E 008°08'0 0.0
2018-Apr-16 22:00N 62°51' E 008°08'0 0.0
2018-Apr-16 21:30N 62°51' E 008°08'0 0.0
2018-Apr-16 21:00N 62°51' E 008°08'0 0.0
2018-Apr-16 20:30N 62°51' E 008°08'0 0.0
2018-Apr-16 20:00N 62°51' E 008°08'0 0.1
2018-Apr-16 19:30N 62°51' E 008°08'4 7.8
2018-Apr-16 19:00N 62°54' E 008°07'4 9.1
2018-Apr-16 18:30N 62°58' E 008°02'5 9.2
2018-Apr-16 18:00N 62°58' E 007°52'4 7.8
2018-Apr-16 17:30N 63°00' E 007°45'4 8.7
2018-Apr-16 17:00N 63°04' E 007°41'4 7.6
2018-Apr-16 16:31N 63°07' E 007°37'5 9.4
2018-Apr-16 16:00N 63°05' E 007°28'5 9.0
2018-Apr-16 15:30N 63°03' E 007°19'4 9.0
2018-Apr-16 15:00N 63°03' E 007°09'5 9.5
2018-Apr-16 14:30N 63°04' E 006°58'5 9.1
2018-Apr-16 14:00N 63°01' E 006°49'4 9.2
2018-Apr-16 13:30N 62°59' E 006°41'5 9.3
2018-Apr-16 13:00N 62°57' E 006°32'5 9.4
2018-Apr-16 12:30N 62°54' E 006°23'5 9.6
2018-Apr-16 12:00N 62°52' E 006°14'5 9.8
2018-Apr-16 11:30N 62°49' E 006°06'5 9.6
2018-Apr-16 11:00N 62°45' E 005°59'5 9.8
2018-Apr-16 10:30N 62°41' E 005°52'5 9.7
2018-Apr-16 10:00N 62°38' E 005°45'5 9.5
2018-Apr-16 09:30N 62°34' E 005°38'5 9.6
2018-Apr-16 08:59N 62°30' E 005°31'5 9.9
2018-Apr-16 08:30N 62°27' E 005°24'5 9.9
2018-Apr-16 08:00N 62°23' E 005°17'5 9.6
2018-Apr-16 07:30N 62°19' E 005°11'5 9.8
2018-Apr-16 07:00N 62°15' E 005°05'510.0
2018-Apr-16 06:30N 62°11' E 004°59'510.0
2018-Apr-16 06:00N 62°07' E 004°53'510.0
2018-Apr-16 05:30N 62°03' E 004°48'510.0
2018-Apr-16 05:00N 61°58' E 004°44'5 9.8
2018-Apr-16 04:29N 61°53' E 004°39'5 9.4
2018-Apr-16 04:00N 61°49' E 004°35'5 9.3
2018-Apr-16 03:30N 61°45' E 004°32'5 9.5
2018-Apr-16 03:00N 61°40' E 004°28'5 9.8
2018-Apr-16 02:30N 61°36' E 004°26'5 9.8
2018-Apr-16 01:59N 61°31' E 004°26'5 9.4
2018-Apr-16 01:30N 61°26' E 004°26'5 9.3
2018-Apr-16 01:00N 61°22' E 004°26'5 9.4
2018-Apr-16 00:30N 61°17' E 004°26'5 9.3
2018-Apr-15 23:59N 61°12' E 004°25'4 9.1
2018-Apr-15 23:30N 61°08' E 004°25'5 9.4
2018-Apr-15 23:00N 61°03' E 004°26'510.2
2018-Apr-15 22:30N 60°58' E 004°26'5 9.7
2018-Apr-15 22:00N 60°53' E 004°28'5 9.2
2018-Apr-15 21:28N 60°48' E 004°28'4 8.9
2018-Apr-15 21:00N 60°44' E 004°28'5 9.2
2018-Apr-15 20:30N 60°39' E 004°29'5 9.3
2018-Apr-15 20:00N 60°35' E 004°29'5 9.7
2018-Apr-15 19:30N 60°30' E 004°30'5 9.9
2018-Apr-15 19:00N 60°25' E 004°30'510.0
2018-Apr-15 18:30N 60°20' E 004°30'510.2
2018-Apr-15 17:59N 60°15' E 004°31'510.4
2018-Apr-15 17:30N 60°10' E 004°31'610.5
2018-Apr-15 16:58N 60°04' E 004°32'57 9.3
2018-Apr-15 10:53N 59°08' E 004°38'4 9.2
2018-Apr-15 10:25N 59°03' E 004°38'4 8.9
2018-Apr-15 09:59N 58°60' E 004°38'6 8.9
2018-Apr-15 09:20N 58°54' E 004°38'3 9.2
2018-Apr-15 08:59N 58°50' E 004°39'11 9.1
2018-Apr-15 07:45N 58°39' E 004°40'2 9.6
2018-Apr-15 07:30N 58°37' E 004°40'5 9.7
2018-Apr-15 06:59N 58°32' E 004°40'510.0
2018-Apr-15 06:30N 58°27' E 004°40'361 8.7
2018-Apr-13 13:03N 52°27' E 003°54'210.5
2018-Apr-13 12:54N 52°25' E 003°54'410.6
2018-Apr-13 12:30N 52°21' E 003°53'510.2
2018-Apr-13 12:00N 52°16' E 003°53'510.0
2018-Apr-13 11:30N 52°11' E 003°54'5 9.6
2018-Apr-13 11:00N 52°06' E 003°54'4 8.7
2018-Apr-13 10:30N 52°02' E 003°55'5 9.1
2018-Apr-13 10:00N 51°60' E 004°01'510.6
2018-Apr-13 09:30N 51°58' E 004°09'510.9
2018-Apr-13 09:00N 51°54' E 004°16'5 8.9
2018-Apr-13 08:30N 51°51' E 004°21'5 9.7
2018-Apr-13 08:00N 51°50' E 004°29'5 9.6
2018-Apr-13 07:30N 51°48' E 004°36'5 9.9
2018-Apr-13 07:00N 51°43' E 004°38'2 4.8
2018-Apr-13 06:31N 51°41' E 004°36'0 0.4
2018-Apr-13 06:00N 51°41' E 004°36'0 0.0
2018-Apr-13 05:24N 51°41' E 004°36'0 0.0
2018-Apr-13 04:48N 51°41' E 004°36'0 0.0
2018-Apr-13 04:27N 51°41' E 004°36'0 0.0
2018-Apr-13 03:57N 51°41' E 004°36'0 0.0
2018-Apr-13 03:30N 51°41' E 004°36'0 0.0
2018-Apr-13 02:51N 51°41' E 004°36'0 0.0
2018-Apr-13 02:27N 51°41' E 004°36'0 0.0
2018-Apr-13 01:54N 51°41' E 004°36'0 0.0
2018-Apr-13 01:30N 51°41' E 004°36'0 0.0
2018-Apr-13 01:00N 51°41' E 004°36'0 0.0
2018-Apr-13 00:15N 51°41' E 004°36'0 0.0
2018-Apr-13 00:00N 51°41' E 004°36'0 0.0
2018-Apr-12 23:30N 51°41' E 004°36'0 0.0
2018-Apr-12 23:00N 51°41' E 004°36'0 0.0
2018-Apr-12 22:24N 51°41' E 004°36'0 0.0
2018-Apr-12 21:54N 51°41' E 004°36'0 0.0
2018-Apr-12 21:27N 51°41' E 004°36'0 0.0
2018-Apr-12 20:57N 51°41' E 004°36'0 0.0
2018-Apr-12 20:30N 51°41' E 004°36'  

Dump ship's entire track history